Time,TemperatureF,DewpointF,PressureIn,WindDirection,WindDirectionDegrees,WindSpeedMPH,WindSpeedGustMPH,Humidity,HourlyPrecipIn,Conditions,Clouds,dailyrainin,SoftwareType,DateUTC
2013-05-28 00:00:00,70.6,64.8,30.17,ENE,60,2.0,5.0,82,0.00,,,0.00,Weather View 32 v70,2013-05-28 04:00:00,
2013-05-28 00:10:00,70.4,64.6,30.17,NE,56,1.0,5.0,82,0.00,,,0.00,Weather View 32 v70,2013-05-28 04:10:00,
2013-05-28 00:20:00,70.4,65.0,30.16,ENE,62,1.0,5.0,83,0.00,,,0.00,Weather View 32 v70,2013-05-28 04:20:00,
2013-05-28 00:30:00,70.3,64.5,30.16,NE,50,3.0,5.0,82,0.00,,,0.00,Weather View 32 v70,2013-05-28 04:30:00,
2013-05-28 00:40:00,70.1,64.7,30.17,NE,55,1.0,4.0,83,0.00,,,0.00,Weather View 32 v70,2013-05-28 04:40:00,
2013-05-28 00:50:00,70.0,64.9,30.16,NE,55,1.0,4.0,84,0.00,,,0.00,Weather View 32 v70,2013-05-28 04:50:00,
2013-05-28 00:57:00,70.0,64.9,30.16,NE,55,1.0,4.0,84,0.00,,,0.00,Weather View 32 v70,2013-05-28 04:57:00,
2013-05-28 01:00:00,70.0,64.6,30.16,NE,55,1.0,4.0,83,0.00,,,0.00,Weather View 32 v70,2013-05-28 05:00:00,
2013-05-28 01:10:00,69.9,64.5,30.16,NE,49,1.0,4.0,83,0.00,,,0.00,Weather View 32 v70,2013-05-28 05:10:00,
2013-05-28 01:20:00,69.7,64.3,30.16,NNE,30,1.0,4.0,83,0.00,,,0.00,Weather View 32 v70,2013-05-28 05:20:00,
2013-05-28 01:30:00,69.4,64.0,30.16,NNE,32,1.0,4.0,83,0.00,,,0.00,Weather View 32 v70,2013-05-28 05:30:00,
2013-05-28 01:40:00,67.9,62.2,30.16,North,5,1.0,4.0,82,0.00,,,0.00,Weather View 32 v70,2013-05-28 05:40:00,
2013-05-28 01:50:00,64.9,60.9,30.16,NW,325,1.0,4.0,87,0.00,,,0.00,Weather View 32 v70,2013-05-28 05:50:00,
2013-05-28 01:58:00,64.9,60.9,30.16,NW,325,1.0,4.0,87,0.00,,,0.00,Weather View 32 v70,2013-05-28 05:58:00,
2013-05-28 02:00:00,64.9,61.6,30.16,NW,311,1.0,4.0,89,0.00,,,0.00,Weather View 32 v70,2013-05-28 06:00:00,
2013-05-28 02:10:00,64.5,61.5,30.16,NW,315,0.0,4.0,90,0.00,,,0.00,Weather View 32 v70,2013-05-28 06:10:00,
2013-05-28 02:20:00,64.0,61.0,30.16,NW,315,1.0,4.0,90,0.00,,,0.00,Weather View 32 v70,2013-05-28 06:20:00,
2013-05-28 02:30:00,63.6,60.9,30.15,NW,315,1.0,4.0,91,0.00,,,0.00,Weather View 32 v70,2013-05-28 06:30:00,
2013-05-28 02:40:00,63.3,60.6,30.15,NW,315,1.0,4.0,91,0.00,,,0.00,Weather View 32 v70,2013-05-28 06:40:00,
2013-05-28 02:50:00,63.0,60.3,30.15,NW,315,0.0,4.0,91,0.00,,,0.00,Weather View 32 v70,2013-05-28 06:50:00,
2013-05-28 02:58:00,63.0,60.3,30.15,NW,315,0.0,4.0,91,0.00,,,0.00,Weather View 32 v70,2013-05-28 06:58:00,
2013-05-28 03:10:00,62.5,60.1,30.15,NW,309,2.0,3.0,92,0.00,,,0.00,Weather View 32 v70,2013-05-28 07:10:00,
2013-05-28 03:20:00,61.9,59.5,30.14,NW,309,0.0,3.0,92,0.00,,,0.00,Weather View 32 v70,2013-05-28 07:20:00,
2013-05-28 03:30:00,61.7,59.6,30.14,NW,309,2.0,3.0,93,0.00,,,0.00,Weather View 32 v70,2013-05-28 07:30:00,
2013-05-28 03:40:00,61.5,59.5,30.14,NW,309,2.0,3.0,93,0.00,,,0.00,Weather View 32 v70,2013-05-28 07:40:00,
2013-05-28 03:50:00,61.4,59.4,30.13,NW,309,2.0,3.0,93,0.00,,,0.00,Weather View 32 v70,2013-05-28 07:50:00,
2013-05-28 03:59:00,61.4,59.4,30.13,NW,309,2.0,3.0,93,0.00,,,0.00,Weather View 32 v70,2013-05-28 07:59:00,
2013-05-28 04:00:00,61.3,59.3,30.13,NW,309,2.0,3.0,93,0.00,,,0.00,Weather View 32 v70,2013-05-28 08:00:00,
2013-05-28 04:10:00,61.0,59.0,30.13,NW,308,2.0,3.0,93,0.00,,,0.00,Weather View 32 v70,2013-05-28 08:10:00,
2013-05-28 04:20:00,60.6,58.6,30.12,WNW,288,3.0,3.0,93,0.00,,,0.00,Weather View 32 v70,2013-05-28 08:20:00,
2013-05-28 04:30:00,60.7,59.0,30.12,WNW,288,2.0,3.0,94,0.00,,,0.00,Weather View 32 v70,2013-05-28 08:30:00,
2013-05-28 04:40:00,60.5,58.5,30.12,WNW,288,1.0,3.0,93,0.00,,,0.00,Weather View 32 v70,2013-05-28 08:40:00,
2013-05-28 04:50:00,60.4,58.7,30.11,WNW,290,0.0,3.0,94,0.00,,,0.00,Weather View 32 v70,2013-05-28 08:50:00,
2013-05-28 04:59:00,60.4,58.7,30.11,WNW,290,0.0,3.0,94,0.00,,,0.00,Weather View 32 v70,2013-05-28 08:59:00,
2013-05-28 05:00:00,60.7,59.0,30.12,WNW,290,0.0,3.0,94,0.00,,,0.00,Weather View 32 v70,2013-05-28 09:00:00,
2013-05-28 05:10:00,60.7,59.0,30.12,WNW,290,1.0,3.0,94,0.00,,,0.00,Weather View 32 v70,2013-05-28 09:10:00,
2013-05-28 05:20:00,60.1,58.4,30.12,WNW,290,1.0,3.0,94,0.00,,,0.00,Weather View 32 v70,2013-05-28 09:20:00,
2013-05-28 05:30:00,60.0,58.3,30.12,WNW,290,1.0,3.0,94,0.00,,,0.00,Weather View 32 v70,2013-05-28 09:30:00,
2013-05-28 05:40:00,60.5,58.8,30.12,WNW,290,1.0,3.0,94,0.00,,,0.00,Weather View 32 v70,2013-05-28 09:40:00,
2013-05-28 05:50:00,59.5,57.5,30.12,WNW,290,0.0,3.0,93,0.00,,,0.00,Weather View 32 v70,2013-05-28 09:50:00,
2013-05-28 06:00:00,60.0,58.3,30.13,WNW,290,1.0,3.0,94,0.00,,,0.00,Weather View 32 v70,2013-05-28 10:00:00,
2013-05-28 06:10:00,59.5,57.8,30.13,WNW,290,1.0,2.0,94,0.00,,,0.00,Weather View 32 v70,2013-05-28 10:10:00,
2013-05-28 06:20:00,59.3,57.6,30.13,WNW,290,0.0,2.0,94,0.00,,,0.00,Weather View 32 v70,2013-05-28 10:20:00,
2013-05-28 06:30:00,60.3,58.9,30.13,WNW,290,0.0,2.0,95,0.00,,,0.00,Weather View 32 v70,2013-05-28 10:30:00,
2013-05-28 06:40:00,59.8,58.1,30.13,WNW,290,0.0,2.0,94,0.00,,,0.00,Weather View 32 v70,2013-05-28 10:40:00,
2013-05-28 06:50:00,59.9,58.2,30.14,WNW,290,0.0,2.0,94,0.00,,,0.00,Weather View 32 v70,2013-05-28 10:50:00,
2013-05-28 07:00:00,60.9,59.5,30.14,WNW,290,0.0,2.0,95,0.00,,,0.00,Weather View 32 v70,2013-05-28 11:00:00,
2013-05-28 07:10:00,60.3,58.6,30.14,WNW,290,0.0,2.0,94,0.00,,,0.00,Weather View 32 v70,2013-05-28 11:10:00,
2013-05-28 07:20:00,61.5,60.0,30.14,WNW,301,2.0,2.0,95,0.00,,,0.00,Weather View 32 v70,2013-05-28 11:20:00,
2013-05-28 07:30:00,61.5,59.8,30.14,WNW,301,0.0,3.0,94,0.00,,,0.00,Weather View 32 v70,2013-05-28 11:30:00,
2013-05-28 07:40:00,62.1,60.3,30.14,WNW,301,1.0,3.0,94,0.00,,,0.00,Weather View 32 v70,2013-05-28 11:40:00,
2013-05-28 07:50:00,63.4,61.6,30.14,WNW,301,0.0,3.0,94,0.00,,,0.00,Weather View 32 v70,2013-05-28 11:50:00,
2013-05-28 08:00:00,65.4,63.6,30.14,WNW,301,0.0,3.0,94,0.00,,,0.00,Weather View 32 v70,2013-05-28 12:00:00,
2013-05-28 08:01:00,65.4,63.6,30.14,WNW,301,0.0,3.0,94,0.00,,,0.00,Weather View 32 v70,2013-05-28 12:01:00,
2013-05-28 08:10:00,68.0,65.3,30.14,WNW,301,0.0,3.0,91,0.00,,,0.00,Weather View 32 v70,2013-05-28 12:10:00,
2013-05-28 08:20:00,71.4,66.6,30.15,ENE,61,1.0,5.0,85,0.00,,,0.00,Weather View 32 v70,2013-05-28 12:20:00,
2013-05-28 08:30:00,72.9,67.1,30.15,ENE,63,2.0,5.0,82,0.00,,,0.00,Weather View 32 v70,2013-05-28 12:30:00,
2013-05-28 08:40:00,73.7,67.1,30.15,ENE,67,3.0,5.0,80,0.00,,,0.00,Weather View 32 v70,2013-05-28 12:40:00,
2013-05-28 08:50:00,74.3,67.3,30.16,ENE,68,4.0,6.0,79,0.00,,,0.00,Weather View 32 v70,2013-05-28 12:50:00,
2013-05-28 09:00:00,74.9,68.3,30.16,ENE,74,4.0,7.0,80,0.00,,,0.00,Weather View 32 v70,2013-05-28 13:00:00,
2013-05-28 09:01:00,74.9,68.3,30.16,ENE,74,4.0,7.0,80,0.00,,,0.00,Weather View 32 v70,2013-05-28 13:01:00,
2013-05-28 09:10:00,75.7,67.9,30.16,ENE,65,5.0,7.0,77,0.00,,,0.00,Weather View 32 v70,2013-05-28 13:10:00,
2013-05-28 09:20:00,76.2,67.3,30.16,East,81,5.0,9.0,74,0.00,,,0.00,Weather View 32 v70,2013-05-28 13:20:00,
2013-05-28 09:30:00,76.4,67.9,30.16,East,101,2.0,9.0,75,0.00,,,0.00,Weather View 32 v70,2013-05-28 13:30:00,
2013-05-28 09:40:00,76.9,68.7,30.16,ESE,109,3.0,9.0,76,0.00,,,0.00,Weather View 32 v70,2013-05-28 13:40:00,
2013-05-28 09:50:00,77.0,67.2,30.16,ENE,78,5.0,12.0,72,0.00,,,0.00,Weather View 32 v70,2013-05-28 13:50:00,
2013-05-28 10:00:00,77.2,67.4,30.16,East,89,9.0,14.0,72,0.00,,,0.00,Weather View 32 v70,2013-05-28 14:00:00,
2013-05-28 10:02:00,77.2,67.4,30.16,East,89,9.0,14.0,72,0.00,,,0.00,Weather View 32 v70,2013-05-28 14:02:00,
2013-05-28 10:10:00,77.2,67.8,30.16,ENE,69,7.0,14.0,73,0.00,,,0.00,Weather View 32 v70,2013-05-28 14:10:00,
2013-05-28 10:20:00,77.4,67.2,30.16,ENE,69,5.0,14.0,71,0.00,,,0.00,Weather View 32 v70,2013-05-28 14:20:00,
2013-05-28 10:30:00,77.8,67.6,30.16,ENE,72,8.0,14.0,71,0.00,,,0.00,Weather View 32 v70,2013-05-28 14:30:00,
2013-05-28 10:40:00,77.8,67.2,30.16,East,88,6.0,14.0,70,0.00,,,0.00,Weather View 32 v70,2013-05-28 14:40:00,
2013-05-28 10:50:00,78.6,66.7,30.16,NE,51,7.0,14.0,67,0.00,,,0.00,Weather View 32 v70,2013-05-28 14:50:00,
2013-05-28 11:00:00,78.4,67.3,30.17,East,79,7.0,11.0,69,0.00,,,0.00,Weather View 32 v70,2013-05-28 15:00:00,
2013-05-28 11:02:00,78.4,67.3,30.17,East,79,7.0,11.0,69,0.00,,,0.00,Weather View 32 v70,2013-05-28 15:02:00,
2013-05-28 11:10:00,78.9,67.4,30.16,ENE,74,3.0,11.0,68,0.00,,,0.00,Weather View 32 v70,2013-05-28 15:10:00,
2013-05-28 11:20:00,78.8,66.9,30.16,NNW,348,3.0,11.0,67,0.00,,,0.00,Weather View 32 v70,2013-05-28 15:20:00,
2013-05-28 11:30:00,79.2,67.7,30.17,ESE,109,0.0,11.0,68,0.00,,,0.00,Weather View 32 v70,2013-05-28 15:30:00,
2013-05-28 11:40:00,79.5,66.7,30.17,East,80,2.0,11.0,65,0.00,,,0.00,Weather View 32 v70,2013-05-28 15:40:00,
2013-05-28 11:50:00,80.2,67.3,30.16,NE,50,5.0,9.0,65,0.00,,,0.00,Weather View 32 v70,2013-05-28 15:50:00,
2013-05-28 12:00:00,80.3,67.9,30.16,ESE,102,1.0,9.0,66,0.00,,,0.00,Weather View 32 v70,2013-05-28 16:00:00,
2013-05-28 12:03:00,80.3,67.9,30.16,ESE,102,1.0,9.0,66,0.00,,,0.00,Weather View 32 v70,2013-05-28 16:03:00,
2013-05-28 12:10:00,80.5,67.6,30.16,NE,40,6.0,10.0,65,0.00,,,0.00,Weather View 32 v70,2013-05-28 16:10:00,
2013-05-28 12:20:00,80.5,67.2,30.16,ENE,65,8.0,10.0,64,0.00,,,0.00,Weather View 32 v70,2013-05-28 16:20:00,
2013-05-28 12:30:00,81.0,66.2,30.16,ESE,116,0.0,10.0,61,0.00,,,0.00,Weather View 32 v70,2013-05-28 16:30:00,
2013-05-28 12:40:00,80.7,66.9,30.16,NE,53,2.0,10.0,63,0.00,,,0.00,Weather View 32 v70,2013-05-28 16:40:00,
2013-05-28 12:50:00,81.4,68.9,30.15,NE,56,5.0,10.0,66,0.00,,,0.00,Weather View 32 v70,2013-05-28 16:50:00,
2013-05-28 13:00:00,81.6,67.3,30.15,SE,141,2.0,10.0,62,0.00,,,0.00,Weather View 32 v70,2013-05-28 17:00:00,
2013-05-28 13:04:00,81.6,67.3,30.15,SE,141,2.0,10.0,62,0.00,,,0.00,Weather View 32 v70,2013-05-28 17:04:00,
2013-05-28 13:10:00,82.0,68.6,30.15,SE,137,2.0,10.0,64,0.00,,,0.00,Weather View 32 v70,2013-05-28 17:10:00,
2013-05-28 13:20:00,81.5,68.1,30.14,NE,36,6.0,9.0,64,0.00,,,0.00,Weather View 32 v70,2013-05-28 17:20:00,
2013-05-28 13:30:00,82.3,68.9,30.14,East,97,5.0,9.0,64,0.00,,,0.00,Weather View 32 v70,2013-05-28 17:30:00,
2013-05-28 13:40:00,82.0,68.6,30.14,NNE,32,6.0,10.0,64,0.00,,,0.00,Weather View 32 v70,2013-05-28 17:40:00,
2013-05-28 13:50:00,82.7,69.7,30.14,East,101,0.0,12.0,65,0.00,,,0.00,Weather View 32 v70,2013-05-28 17:50:00,
2013-05-28 14:00:00,83.0,70.0,30.13,ENE,67,8.0,12.0,65,0.00,,,0.00,Weather View 32 v70,2013-05-28 18:00:00,
2013-05-28 14:10:00,82.5,69.5,30.13,East,83,3.0,12.0,65,0.00,,,0.00,Weather View 32 v70,2013-05-28 18:10:00,
2013-05-28 14:20:00,82.8,68.9,30.12,East,80,6.0,14.0,63,0.00,,,0.00,Weather View 32 v70,2013-05-28 18:20:00,
2013-05-28 14:30:00,82.7,67.8,30.12,ENE,69,5.0,14.0,61,0.00,,,0.00,Weather View 32 v70,2013-05-28 18:30:00,
2013-05-28 14:40:00,82.5,68.1,30.12,ENE,70,3.0,14.0,62,0.00,,,0.00,Weather View 32 v70,2013-05-28 18:40:00,
2013-05-28 14:50:00,83.7,69.2,30.12,NE,51,7.0,14.0,62,0.00,,,0.00,Weather View 32 v70,2013-05-28 18:50:00,
2013-05-28 15:00:00,83.0,69.5,30.11,NE,53,8.0,14.0,64,0.00,,,0.00,Weather View 32 v70,2013-05-28 19:00:00,
2013-05-28 15:05:00,83.0,69.5,30.11,NE,53,8.0,14.0,64,0.00,,,0.00,Weather View 32 v70,2013-05-28 19:05:00,
2013-05-28 15:10:00,82.7,69.2,30.12,ENE,71,3.0,14.0,64,0.00,,,0.00,Weather View 32 v70,2013-05-28 19:10:00,
2013-05-28 15:20:00,83.0,69.5,30.11,ENE,60,10.0,15.0,64,0.00,,,0.00,Weather View 32 v70,2013-05-28 19:20:00,
2013-05-28 15:30:00,82.8,69.8,30.11,ENE,57,12.0,15.0,65,0.00,,,0.00,Weather View 32 v70,2013-05-28 19:30:00,
2013-05-28 15:40:00,82.6,70.0,30.11,East,94,3.0,15.0,66,0.00,,,0.00,Weather View 32 v70,2013-05-28 19:40:00,
2013-05-28 15:50:00,83.1,70.1,30.11,East,92,6.0,15.0,65,0.00,,,0.00,Weather View 32 v70,2013-05-28 19:50:00,
2013-05-28 16:00:00,83.1,70.1,30.11,NE,46,6.0,15.0,65,0.00,,,0.00,Weather View 32 v70,2013-05-28 20:00:00,
2013-05-28 16:05:00,83.1,70.1,30.11,NE,46,6.0,15.0,65,0.00,,,0.00,Weather View 32 v70,2013-05-28 20:05:00,
2013-05-28 16:10:00,82.7,69.7,30.11,ENE,78,7.0,17.0,65,0.00,,,0.00,Weather View 32 v70,2013-05-28 20:10:00,
2013-05-28 16:20:00,82.7,70.1,30.10,NE,51,8.0,17.0,66,0.00,,,0.00,Weather View 32 v70,2013-05-28 20:20:00,
2013-05-28 16:30:00,82.1,70.0,30.10,NNE,28,8.0,17.0,67,0.00,,,0.00,Weather View 32 v70,2013-05-28 20:30:00,
2013-05-28 16:40:00,81.9,70.3,30.10,NE,41,10.0,17.0,68,0.00,,,0.00,Weather View 32 v70,2013-05-28 20:40:00,
2013-05-28 16:50:00,81.7,70.1,30.10,ENE,69,5.0,17.0,68,0.00,,,0.00,Weather View 32 v70,2013-05-28 20:50:00,
2013-05-28 17:00:00,82.0,70.3,30.10,ENE,61,7.0,17.0,68,0.00,,,0.00,Weather View 32 v70,2013-05-28 21:00:00,
2013-05-28 17:06:00,82.0,70.3,30.10,ENE,61,7.0,17.0,68,0.00,,,0.00,Weather View 32 v70,2013-05-28 21:06:00,
2013-05-28 17:10:00,82.0,70.8,30.10,East,81,8.0,17.0,69,0.00,,,0.00,Weather View 32 v70,2013-05-28 21:10:00,
2013-05-28 17:20:00,81.6,70.0,30.10,NE,53,10.0,17.0,68,0.00,,,0.00,Weather View 32 v70,2013-05-28 21:20:00,
2013-05-28 17:30:00,81.5,69.9,30.09,ENE,60,13.0,17.0,68,0.00,,,0.00,Weather View 32 v70,2013-05-28 21:30:00,
2013-05-28 17:40:00,81.4,70.2,30.10,NE,46,10.0,17.0,69,0.00,,,0.00,Weather View 32 v70,2013-05-28 21:40:00,
2013-05-28 17:50:00,81.5,69.9,30.10,East,84,10.0,17.0,68,0.00,,,0.00,Weather View 32 v70,2013-05-28 21:50:00,
2013-05-28 18:00:00,81.3,70.1,30.10,NE,55,9.0,17.0,69,0.00,,,0.00,Weather View 32 v70,2013-05-28 22:00:00,
2013-05-28 18:06:00,81.3,70.1,30.10,NE,55,9.0,17.0,69,0.00,,,0.00,Weather View 32 v70,2013-05-28 22:06:00,
2013-05-28 18:10:00,81.1,69.5,30.10,ENE,59,7.0,17.0,68,0.00,,,0.00,Weather View 32 v70,2013-05-28 22:10:00,
2013-05-28 18:20:00,80.9,68.9,30.10,NE,48,3.0,16.0,67,0.00,,,0.00,Weather View 32 v70,2013-05-28 22:20:00,
2013-05-28 18:30:00,80.6,69.0,30.10,ENE,69,10.0,16.0,68,0.00,,,0.00,Weather View 32 v70,2013-05-28 22:30:00,
2013-05-28 18:40:00,80.5,69.8,30.10,SE,126,3.0,16.0,70,0.00,,,0.00,Weather View 32 v70,2013-05-28 22:40:00,
2013-05-28 18:50:00,80.3,70.4,30.10,NE,36,8.0,16.0,72,0.00,,,0.00,Weather View 32 v70,2013-05-28 22:50:00,
2013-05-28 19:00:00,79.8,70.3,30.10,NE,40,8.0,16.0,73,0.00,,,0.00,Weather View 32 v70,2013-05-28 23:00:00,
2013-05-28 19:07:00,79.8,70.3,30.10,NE,40,8.0,16.0,73,0.00,,,0.00,Weather View 32 v70,2013-05-28 23:07:00,
2013-05-28 19:10:00,79.4,69.5,30.11,NE,55,12.0,16.0,72,0.00,,,0.00,Weather View 32 v70,2013-05-28 23:10:00,
2013-05-28 19:20:00,79.1,69.7,30.11,ENE,65,8.0,16.0,73,0.00,,,0.00,Weather View 32 v70,2013-05-28 23:20:00,
2013-05-28 19:30:00,78.9,69.9,30.11,ENE,65,9.0,16.0,74,0.00,,,0.00,Weather View 32 v70,2013-05-28 23:30:00,
2013-05-28 19:40:00,78.7,69.3,30.12,NE,43,8.0,16.0,73,0.00,,,0.00,Weather View 32 v70,2013-05-28 23:40:00,
2013-05-28 19:50:00,78.5,69.9,30.12,ENE,58,7.0,14.0,75,0.00,,,0.00,Weather View 32 v70,2013-05-28 23:50:00,
2013-05-28 20:00:00,78.2,69.6,30.11,ESE,105,9.0,14.0,75,0.00,,,0.00,Weather View 32 v70,2013-05-29 00:00:00,
2013-05-28 20:10:00,77.9,69.3,30.12,NE,51,6.0,13.0,75,0.00,,,0.00,Weather View 32 v70,2013-05-29 00:10:00,
2013-05-28 20:20:00,77.6,69.8,30.12,East,82,7.0,12.0,77,0.00,,,0.00,Weather View 32 v70,2013-05-29 00:20:00,
2013-05-28 20:30:00,77.4,70.0,30.12,ENE,70,5.0,12.0,78,0.00,,,0.00,Weather View 32 v70,2013-05-29 00:30:00,
2013-05-28 20:40:00,77.1,69.7,30.12,ENE,69,5.0,12.0,78,0.00,,,0.00,Weather View 32 v70,2013-05-29 00:40:00,
2013-05-28 20:50:00,76.8,69.4,30.11,ENE,75,4.0,12.0,78,0.00,,,0.00,Weather View 32 v70,2013-05-29 00:50:00,
2013-05-28 21:00:00,76.6,70.3,30.12,ENE,67,4.0,12.0,81,0.00,,,0.00,Weather View 32 v70,2013-05-29 01:00:00,
2013-05-28 21:08:00,76.6,70.3,30.12,ENE,67,4.0,12.0,81,0.00,,,0.00,Weather View 32 v70,2013-05-29 01:08:00,
2013-05-28 21:10:00,76.3,70.0,30.12,ENE,76,5.0,12.0,81,0.00,,,0.00,Weather View 32 v70,2013-05-29 01:10:00,
2013-05-28 21:20:00,76.0,69.7,30.12,ENE,61,4.0,10.0,81,0.00,,,0.00,Weather View 32 v70,2013-05-29 01:20:00,
2013-05-28 21:30:00,75.9,70.0,30.12,East,87,8.0,10.0,82,0.00,,,0.00,Weather View 32 v70,2013-05-29 01:30:00,
2013-05-28 21:40:00,75.7,70.1,30.12,ENE,76,3.0,10.0,83,0.00,,,0.00,Weather View 32 v70,2013-05-29 01:40:00,
2013-05-28 21:50:00,75.4,69.9,30.12,ESE,107,1.0,10.0,83,0.00,,,0.00,Weather View 32 v70,2013-05-29 01:50:00,
2013-05-28 22:00:00,75.2,70.0,30.12,ENE,76,3.0,10.0,84,0.00,,,0.00,Weather View 32 v70,2013-05-29 02:00:00,
2013-05-28 22:09:00,75.2,70.0,30.12,ENE,76,3.0,10.0,84,0.00,,,0.00,Weather View 32 v70,2013-05-29 02:09:00,
2013-05-28 22:10:00,75.1,69.9,30.13,ENE,72,5.0,10.0,84,0.00,,,0.00,Weather View 32 v70,2013-05-29 02:10:00,
2013-05-28 22:20:00,74.8,69.6,30.13,ENE,74,2.0,10.0,84,0.00,,,0.00,Weather View 32 v70,2013-05-29 02:20:00,
2013-05-28 22:30:00,74.7,69.9,30.13,ENE,65,1.0,10.0,85,0.00,,,0.00,Weather View 32 v70,2013-05-29 02:30:00,
2013-05-28 22:40:00,74.5,69.7,30.14,ENE,69,3.0,8.0,85,0.00,,,0.00,Weather View 32 v70,2013-05-29 02:40:00,
2013-05-28 22:50:00,74.4,69.6,30.14,East,85,2.0,8.0,85,0.00,,,0.00,Weather View 32 v70,2013-05-29 02:50:00,
2013-05-28 23:00:00,74.3,70.2,30.14,ENE,78,0.0,7.0,87,0.00,,,0.00,Weather View 32 v70,2013-05-29 03:00:00,
2013-05-28 23:09:00,74.3,70.2,30.14,ENE,78,0.0,7.0,87,0.00,,,0.00,Weather View 32 v70,2013-05-29 03:09:00,
2013-05-28 23:10:00,74.1,70.0,30.14,ENE,64,1.0,7.0,87,0.00,,,0.00,Weather View 32 v70,2013-05-29 03:10:00,
2013-05-28 23:20:00,73.9,69.8,30.14,ENE,63,2.0,5.0,87,0.00,,,0.00,Weather View 32 v70,2013-05-29 03:20:00,
2013-05-28 23:30:00,73.8,69.7,30.14,ENE,67,2.0,5.0,87,0.00,,,0.00,Weather View 32 v70,2013-05-29 03:30:00,
2013-05-28 23:40:00,73.6,69.8,30.14,ENE,77,3.0,5.0,88,0.00,,,0.00,Weather View 32 v70,2013-05-29 03:40:00,
2013-05-28 23:50:00,73.6,70.1,30.14,ENE,64,1.0,4.0,89,0.00,,,0.00,Weather View 32 v70,2013-05-29 03:50:00,